createdAt,value
2022-12-29T00:01:59.111Z,11.24
2022-12-29T00:04:25.596Z,11.06
2022-12-29T00:06:53.622Z,11.09
2022-12-29T00:09:20.305Z,11.32
2022-12-29T00:11:46.855Z,11.24
2022-12-29T00:14:32.395Z,11.34
2022-12-29T00:16:58.935Z,11.43
2022-12-29T00:19:44.164Z,11.25
2022-12-29T00:22:31.542Z,11.28
2022-12-29T00:25:16.793Z,11.31
2022-12-29T00:28:07.665Z,11.15
2022-12-29T00:30:54.442Z,11.13
2022-12-29T00:33:41.138Z,11.27
2022-12-29T00:36:25.326Z,11.28
2022-12-29T00:39:27.056Z,11.14
2022-12-29T00:42:11.732Z,11.14
2022-12-29T00:44:38.164Z,11.15
2022-12-29T00:47:05.416Z,11.12
2022-12-29T00:49:32.618Z,11.26
2022-12-29T00:52:04.589Z,11.42
2022-12-29T00:54:33.602Z,11.13
2022-12-29T00:57:01.567Z,11.26
2022-12-29T00:59:28.191Z,11.14
2022-12-29T01:01:55.951Z,11.21
2022-12-29T01:04:24.419Z,11.04
2022-12-29T01:06:51.082Z,11.17
2022-12-29T01:09:36.875Z,11.11
2022-12-29T01:12:04.930Z,11.04
2022-12-29T01:14:31.544Z,11.10
2022-12-29T01:16:58.320Z,11.13
2022-12-29T01:19:25.340Z,11.24
2022-12-29T01:21:52.127Z,11.14
2022-12-29T01:24:20.054Z,11.15
2022-12-29T01:26:47.519Z,11.22
2022-12-29T01:29:14.053Z,11.21
2022-12-29T01:31:40.926Z,11.20
2022-12-29T01:34:07.719Z,11.22
2022-12-29T01:36:34.430Z,11.25
2022-12-29T01:39:00.908Z,11.27
2022-12-29T01:41:27.971Z,11.20
2022-12-29T01:44:00.271Z,11.20
2022-12-29T01:46:34.378Z,11.20
2022-12-29T01:49:05.391Z,11.28
2022-12-29T01:51:34.391Z,11.27
2022-12-29T01:54:05.476Z,11.25
2022-12-29T01:56:32.001Z,11.26
2022-12-29T01:59:06.098Z,11.35
2022-12-29T02:01:32.725Z,11.41
2022-12-29T02:03:59.572Z,11.27
2022-12-29T02:07:01.781Z,11.16
2022-12-29T02:09:28.265Z,11.12
2022-12-29T02:11:55.117Z,11.17
2022-12-29T02:14:21.498Z,11.17
2022-12-29T02:17:17.845Z,11.17
2022-12-29T02:20:28.458Z,11.32
2022-12-29T02:23:19.332Z,11.23
2022-12-29T02:25:45.707Z,11.27
2022-12-29T02:28:32.370Z,11.26
2022-12-29T02:31:51.285Z,11.20
2022-12-29T02:34:48.659Z,11.32
2022-12-29T02:37:23.742Z,11.37
2022-12-29T02:39:56.164Z,11.39
2022-12-29T02:42:52.757Z,11.39
2022-12-29T02:45:48.459Z,11.51
2022-12-29T02:48:22.885Z,11.63
2022-12-29T02:50:57.715Z,11.42
2022-12-29T02:53:44.929Z,11.26
2022-12-29T02:56:11.335Z,11.28
2022-12-29T02:58:37.863Z,11.31
2022-12-29T03:01:13.350Z,11.33
2022-12-29T03:03:53.425Z,11.27
2022-12-29T03:06:55.540Z,11.47
2022-12-29T03:09:32.885Z,11.43
2022-12-29T03:12:11.223Z,11.52
2022-12-29T03:15:04.351Z,11.46
2022-12-29T03:17:47.396Z,11.40
2022-12-29T03:20:21.025Z,11.46
2022-12-29T03:22:51.793Z,11.59
2022-12-29T03:25:39.255Z,11.57
2022-12-29T03:28:10.658Z,11.60
2022-12-29T03:30:40.329Z,11.66
2022-12-29T03:33:11.742Z,11.61
2022-12-29T03:35:41.724Z,11.60
2022-12-29T03:38:20.072Z,11.84
2022-12-29T03:40:51.032Z,11.86
2022-12-29T03:43:18.684Z,11.70
2022-12-29T03:45:45.197Z,11.73
2022-12-29T03:48:11.670Z,11.75
2022-12-29T03:50:38.189Z,11.79
2022-12-29T03:53:04.655Z,11.73
2022-12-29T03:55:31.134Z,11.70
2022-12-29T03:57:57.890Z,11.70
2022-12-29T04:00:24.421Z,11.80
2022-12-29T04:02:51.205Z,11.95
2022-12-29T04:05:17.876Z,11.81
2022-12-29T04:07:44.229Z,11.80
2022-12-29T04:10:10.655Z,12.03
2022-12-29T04:12:37.003Z,11.95
2022-12-29T04:15:04.010Z,11.96
2022-12-29T04:17:30.463Z,11.86
2022-12-29T04:20:16.840Z,12.00
2022-12-29T04:22:43.225Z,11.97
2022-12-29T04:25:10.009Z,11.97
2022-12-29T04:27:36.462Z,12.11
2022-12-29T04:30:03.337Z,12.10
2022-12-29T04:32:29.668Z,12.01
2022-12-29T04:34:56.050Z,11.93
2022-12-29T04:37:22.498Z,11.88
2022-12-29T04:39:48.852Z,11.98
2022-12-29T04:42:15.214Z,11.96
2022-12-29T04:44:45.244Z,11.86
2022-12-29T04:47:11.831Z,11.74
2022-12-29T04:49:38.193Z,11.68
2022-12-29T04:52:05.076Z,11.86
2022-12-29T04:54:31.574Z,11.76
2022-12-29T04:56:57.957Z,11.75
2022-12-29T04:59:24.452Z,11.67
2022-12-29T05:01:50.985Z,11.68
2022-12-29T05:04:17.511Z,11.71
2022-12-29T05:06:43.886Z,11.66
2022-12-29T05:09:10.343Z,11.72
2022-12-29T05:11:36.815Z,11.70
2022-12-29T05:14:03.214Z,11.77
2022-12-29T05:16:29.660Z,12.00
2022-12-29T05:18:56.118Z,11.90
2022-12-29T05:21:22.609Z,11.84
2022-12-29T05:23:49.016Z,11.95
2022-12-29T05:26:15.457Z,11.80
2022-12-29T05:28:41.843Z,11.95
2022-12-29T05:31:08.300Z,12.03
2022-12-29T05:33:34.727Z,12.04
2022-12-29T05:36:08.931Z,12.09
2022-12-29T05:38:35.875Z,12.10
2022-12-29T05:41:02.249Z,12.13
2022-12-29T05:43:28.650Z,12.25
2022-12-29T05:45:55.990Z,12.15
2022-12-29T05:48:22.402Z,12.40
2022-12-29T05:50:50.133Z,12.29
2022-12-29T05:53:17.228Z,12.35
2022-12-29T05:55:48.843Z,12.31
2022-12-29T05:58:16.747Z,12.33
2022-12-29T06:00:43.701Z,12.23
2022-12-29T06:03:10.201Z,12.14
2022-12-29T06:05:36.680Z,12.22
2022-12-29T06:08:03.127Z,12.10
2022-12-29T06:10:29.545Z,12.20
2022-12-29T06:12:55.996Z,12.23
2022-12-29T06:15:22.361Z,12.27
2022-12-29T06:17:49.044Z,12.14
2022-12-29T06:20:15.672Z,12.10
2022-12-29T06:22:42.164Z,12.03
2022-12-29T06:25:09.139Z,12.14
2022-12-29T06:27:40.068Z,12.26
2022-12-29T06:30:07.159Z,12.10
2022-12-29T06:32:33.566Z,12.21
2022-12-29T06:35:00.320Z,12.19
2022-12-29T06:37:26.768Z,12.11
2022-12-29T06:39:53.172Z,12.33
2022-12-29T06:42:19.649Z,12.14
2022-12-29T06:44:46.106Z,12.17
2022-12-29T06:47:12.584Z,12.28
2022-12-29T06:49:39.249Z,12.32
2022-12-29T06:52:12.301Z,12.40
2022-12-29T06:54:39.641Z,12.38
2022-12-29T06:57:06.107Z,12.32
2022-12-29T06:59:32.577Z,12.15
2022-12-29T07:01:59.049Z,12.15
2022-12-29T07:04:25.614Z,12.16
2022-12-29T07:06:52.081Z,12.13
2022-12-29T07:09:18.472Z,12.32
2022-12-29T07:11:44.968Z,12.48
2022-12-29T07:14:12.367Z,12.46
2022-12-29T07:16:39.125Z,12.47
2022-12-29T07:19:05.597Z,12.30
2022-12-29T07:21:32.194Z,12.17
2022-12-29T07:23:58.548Z,12.10
2022-12-29T07:26:25.183Z,12.14
2022-12-29T07:28:51.806Z,12.23
2022-12-29T07:31:20.505Z,12.18
2022-12-29T07:33:48.632Z,12.05
2022-12-29T07:36:16.367Z,12.25
2022-12-29T07:38:43.267Z,12.23
2022-12-29T07:41:10.057Z,12.24
2022-12-29T07:43:36.700Z,12.25
2022-12-29T07:46:03.196Z,12.14
2022-12-29T07:48:29.756Z,12.07
2022-12-29T07:50:56.214Z,12.18
2022-12-29T07:53:23.525Z,12.12
2022-12-29T07:55:50.408Z,12.19
2022-12-29T07:58:16.803Z,12.05
2022-12-29T08:00:43.187Z,12.04
2022-12-29T08:03:09.578Z,12.04
2022-12-29T08:05:36.077Z,12.04
2022-12-29T08:08:02.550Z,11.99
2022-12-29T08:10:28.952Z,12.07
2022-12-29T08:12:55.411Z,12.18
2022-12-29T08:15:24.440Z,12.21
2022-12-29T08:17:53.489Z,12.22
2022-12-29T08:20:19.959Z,12.21
2022-12-29T08:22:46.364Z,12.18
2022-12-29T08:25:12.833Z,12.27
2022-12-29T08:27:39.292Z,12.27
2022-12-29T08:30:06.283Z,12.41
2022-12-29T08:32:32.751Z,12.59
2022-12-29T08:34:59.129Z,12.53
2022-12-29T08:37:30.917Z,12.57
2022-12-29T08:39:58.779Z,12.51
2022-12-29T08:42:29.830Z,12.48
2022-12-29T08:44:56.241Z,12.50
2022-12-29T08:47:22.603Z,12.42
2022-12-29T08:49:49.164Z,12.50
2022-12-29T08:52:15.592Z,12.45
2022-12-29T08:54:41.983Z,12.46
2022-12-29T08:57:08.468Z,12.40
2022-12-29T08:59:36.122Z,12.11
2022-12-29T09:02:02.779Z,11.97
2022-12-29T09:04:29.560Z,12.04
2022-12-29T09:06:56.094Z,12.05
2022-12-29T09:09:22.555Z,11.73
2022-12-29T09:11:48.911Z,11.82
2022-12-29T09:14:15.382Z,11.91
2022-12-29T09:17:00.464Z,11.75
2022-12-29T09:19:26.918Z,11.64
2022-12-29T09:21:53.305Z,11.36
2022-12-29T09:24:19.694Z,11.54
2022-12-29T09:26:47.228Z,11.39
2022-12-29T09:29:13.677Z,11.53
2022-12-29T09:31:40.158Z,11.54
2022-12-29T09:34:06.666Z,11.53
2022-12-29T09:36:33.029Z,11.56
2022-12-29T09:38:59.371Z,11.35
2022-12-29T09:41:32.819Z,11.52
2022-12-29T09:44:26.954Z,11.40
2022-12-29T09:46:56.612Z,11.32
2022-12-29T09:49:34.428Z,11.42
2022-12-29T09:52:06.787Z,11.47
2022-12-29T09:54:53.582Z,11.48
2022-12-29T09:57:28.404Z,11.42
2022-12-29T10:00:05.331Z,11.38
2022-12-29T10:03:03.204Z,11.33
2022-12-29T10:05:29.560Z,11.40
2022-12-29T10:08:17.871Z,11.49
2022-12-29T10:10:56.575Z,11.50
2022-12-29T10:13:33.294Z,11.83
2022-12-29T10:16:18.299Z,11.77
2022-12-29T10:18:51.895Z,11.89
2022-12-29T10:21:38.919Z,11.88
2022-12-29T10:24:10.041Z,11.79
2022-12-29T10:26:41.783Z,11.99
2022-12-29T10:29:21.103Z,11.90
2022-12-29T10:31:57.183Z,11.74
2022-12-29T10:34:34.428Z,11.92
2022-12-29T10:37:36.118Z,12.07
2022-12-29T10:40:16.644Z,12.22
2022-12-29T10:42:51.372Z,12.35
2022-12-29T10:45:20.035Z,12.58
2022-12-29T10:48:16.234Z,12.62
2022-12-29T10:50:43.974Z,12.63
2022-12-29T10:53:20.126Z,12.48
2022-12-29T10:55:47.732Z,12.54
2022-12-29T10:58:15.804Z,12.54
2022-12-29T11:00:43.966Z,12.53
2022-12-29T11:03:32.061Z,12.50
2022-12-29T11:06:08.042Z,12.53
2022-12-29T11:08:38.857Z,12.67
2022-12-29T11:11:07.973Z,12.51
2022-12-29T11:13:46.891Z,12.61
2022-12-29T11:16:13.658Z,12.65
2022-12-29T11:18:43.449Z,12.74
2022-12-29T11:21:32.569Z,12.84
2022-12-29T11:24:01.862Z,12.95
2022-12-29T11:26:34.041Z,13.10
2022-12-29T11:29:27.907Z,12.96
2022-12-29T11:32:00.095Z,13.11
2022-12-29T11:34:32.484Z,13.29
2022-12-29T11:37:21.611Z,13.29
2022-12-29T11:40:00.684Z,13.03
2022-12-29T11:42:41.247Z,13.10
2022-12-29T11:45:13.399Z,13.18
2022-12-29T11:47:39.863Z,13.09
2022-12-29T11:50:08.240Z,12.97
2022-12-29T11:52:40.452Z,13.04
2022-12-29T11:55:19.486Z,13.16
2022-12-29T11:57:46.364Z,13.24
2022-12-29T12:00:20.172Z,13.15
2022-12-29T12:03:25.603Z,13.12
2022-12-29T12:05:57.209Z,13.06
2022-12-29T12:08:36.764Z,13.28
2022-12-29T12:11:23.442Z,13.31
2022-12-29T12:14:03.499Z,13.20
2022-12-29T12:16:42.116Z,13.20
2022-12-29T12:19:35.659Z,13.26
2022-12-29T12:22:12.150Z,13.07
2022-12-29T12:24:50.288Z,12.84
2022-12-29T12:27:24.941Z,12.99
2022-12-29T12:30:00.594Z,13.20
2022-12-29T12:32:49.341Z,13.25
2022-12-29T12:35:25.156Z,13.61
2022-12-29T12:38:16.501Z,13.74
2022-12-29T12:40:49.019Z,13.76
2022-12-29T12:43:34.699Z,13.64
2022-12-29T12:46:25.381Z,13.79
2022-12-29T12:49:30.230Z,13.90
2022-12-29T12:52:20.717Z,13.79
2022-12-29T12:55:13.787Z,13.68
2022-12-29T12:57:48.984Z,13.78
2022-12-29T13:00:20.904Z,13.64
2022-12-29T13:03:12.207Z,13.84
2022-12-29T13:06:03.969Z,13.78
2022-12-29T13:08:45.562Z,13.50
2022-12-29T13:11:11.855Z,13.65
2022-12-29T13:13:55.940Z,13.85
2022-12-29T13:16:48.517Z,13.76
2022-12-29T13:19:42.357Z,13.72
2022-12-29T13:22:30.135Z,13.89
2022-12-29T13:25:20.982Z,13.98
2022-12-29T13:28:03.134Z,13.94
2022-12-29T13:30:38.579Z,13.85
2022-12-29T13:33:38.032Z,13.66
2022-12-29T13:36:24.568Z,13.68
2022-12-29T13:39:21.049Z,13.39
2022-12-29T13:41:58.042Z,13.22
2022-12-29T13:44:43.952Z,13.22
2022-12-29T13:47:29.406Z,13.23
2022-12-29T13:49:59.400Z,13.09
2022-12-29T13:52:37.396Z,13.16
2022-12-29T13:55:28.636Z,13.30
2022-12-29T13:58:01.393Z,13.17
2022-12-29T14:00:32.005Z,13.18
2022-12-29T14:03:30.896Z,13.15
2022-12-29T14:06:12.264Z,13.17
2022-12-29T14:08:39.011Z,13.03
2022-12-29T14:11:15.232Z,13.15
2022-12-29T14:13:47.754Z,12.87
2022-12-29T14:16:31.102Z,12.84
2022-12-29T14:19:06.483Z,12.86
2022-12-29T14:21:34.267Z,12.95
2022-12-29T14:24:39.820Z,12.87
2022-12-29T14:27:12.176Z,12.72
2022-12-29T14:29:41.734Z,12.77
2022-12-29T14:32:26.282Z,12.50
2022-12-29T14:34:54.799Z,12.64
2022-12-29T14:37:29.233Z,12.50
2022-12-29T14:40:18.397Z,12.42
2022-12-29T14:42:46.771Z,12.44
2022-12-29T14:45:16.002Z,12.43
2022-12-29T14:47:44.826Z,12.50
2022-12-29T14:50:11.183Z,12.48
2022-12-29T14:53:02.612Z,12.39
2022-12-29T14:55:41.303Z,12.45
2022-12-29T14:58:19.312Z,12.25
2022-12-29T15:00:46.553Z,12.36
2022-12-29T15:03:55.216Z,12.33
2022-12-29T15:06:24.816Z,12.30
2022-12-29T15:09:16.113Z,12.22
2022-12-29T15:11:50.872Z,12.11
2022-12-29T15:14:31.202Z,12.08
2022-12-29T15:16:57.730Z,12.07
2022-12-29T15:19:28.729Z,12.02
2022-12-29T15:21:56.538Z,11.94
2022-12-29T15:24:24.036Z,12.18
2022-12-29T15:26:52.922Z,12.00
2022-12-29T15:29:40.447Z,11.86
2022-12-29T15:32:15.889Z,11.77
2022-12-29T15:34:47.383Z,11.71
2022-12-29T15:37:25.564Z,11.60
2022-12-29T15:39:53.311Z,11.64
2022-12-29T15:42:41.527Z,11.65
2022-12-29T15:45:13.016Z,11.64
2022-12-29T15:47:41.133Z,11.54
2022-12-29T15:50:15.561Z,11.51
2022-12-29T15:52:41.973Z,11.36
2022-12-29T15:55:21.588Z,11.15
2022-12-29T15:57:48.045Z,11.22
2022-12-29T16:00:29.521Z,11.14
2022-12-29T16:02:59.482Z,11.01
2022-12-29T16:05:36.713Z,11.11
2022-12-29T16:08:04.972Z,11.05
2022-12-29T16:10:42.789Z,11.04
2022-12-29T16:13:22.765Z,10.97
2022-12-29T16:15:57.667Z,10.96
2022-12-29T16:18:27.397Z,10.98
2022-12-29T16:20:55.466Z,10.80
2022-12-29T16:23:26.089Z,10.86
2022-12-29T16:25:55.647Z,10.84
2022-12-29T16:28:25.875Z,10.79
2022-12-29T16:31:07.066Z,10.80
2022-12-29T16:33:54.700Z,10.74
2022-12-29T16:36:26.622Z,10.74
2022-12-29T16:39:24.106Z,10.71
2022-12-29T16:41:51.588Z,10.69
2022-12-29T16:44:22.245Z,10.66
2022-12-29T16:47:06.087Z,10.81
2022-12-29T16:49:34.969Z,10.66
2022-12-29T16:52:02.164Z,10.57
2022-12-29T16:54:36.413Z,10.64
2022-12-29T16:57:04.095Z,10.71
2022-12-29T16:59:36.499Z,10.84
2022-12-29T17:02:09.002Z,10.68
2022-12-29T17:04:35.560Z,10.59
2022-12-29T17:07:01.979Z,10.51
2022-12-29T17:09:29.489Z,10.46
2022-12-29T17:12:08.382Z,10.55
2022-12-29T17:14:42.860Z,10.32
2022-12-29T17:17:16.810Z,10.29
2022-12-29T17:19:46.999Z,10.10
2022-12-29T17:22:17.701Z,10.13
2022-12-29T17:24:44.144Z,10.04
2022-12-29T17:27:40.527Z,9.89
2022-12-29T17:30:13.367Z,10.03
2022-12-29T17:32:41.255Z,10.06
2022-12-29T17:35:15.529Z,10.16
2022-12-29T17:37:42.089Z,10.20
2022-12-29T17:40:14.286Z,10.17
2022-12-29T17:42:44.746Z,9.95
2022-12-29T17:45:20.775Z,10.19
2022-12-29T17:47:47.435Z,10.18
2022-12-29T17:50:17.103Z,10.09
2022-12-29T17:52:46.812Z,10.08
2022-12-29T17:55:18.746Z,10.15
2022-12-29T17:57:45.849Z,10.17
2022-12-29T18:00:27.733Z,10.23
2022-12-29T18:02:58.379Z,10.19
2022-12-29T18:05:29.967Z,10.28
2022-12-29T18:07:59.034Z,10.16
2022-12-29T18:10:28.472Z,10.20
2022-12-29T18:12:58.597Z,10.33
2022-12-29T18:15:31.860Z,10.27
2022-12-29T18:18:15.647Z,10.21
2022-12-29T18:20:43.452Z,10.22
2022-12-29T18:23:37.314Z,10.14
2022-12-29T18:26:23.697Z,10.09
2022-12-29T18:28:53.417Z,10.06
2022-12-29T18:31:25.558Z,9.93
2022-12-29T18:33:54.157Z,9.93
2022-12-29T18:36:21.143Z,9.92
2022-12-29T18:38:48.174Z,9.86
2022-12-29T18:41:21.357Z,9.89
2022-12-29T18:43:48.068Z,9.88
2022-12-29T18:46:20.378Z,9.82
2022-12-29T18:48:48.973Z,10.04
2022-12-29T18:51:17.889Z,10.03
2022-12-29T18:53:45.413Z,9.88
2022-12-29T18:56:12.020Z,9.79
2022-12-29T18:58:38.492Z,9.68
2022-12-29T19:01:05.910Z,9.44
2022-12-29T19:03:32.715Z,9.36
2022-12-29T19:06:00.339Z,9.20
2022-12-29T19:08:27.111Z,9.20
2022-12-29T19:10:53.633Z,9.07
2022-12-29T19:13:29.414Z,8.89
2022-12-29T19:15:57.366Z,9.06
2022-12-29T19:18:44.175Z,8.88
2022-12-29T19:21:11.590Z,8.78
2022-12-29T19:23:37.948Z,8.68
2022-12-29T19:26:04.414Z,8.48
2022-12-29T19:28:30.817Z,8.49
2022-12-29T19:31:02.002Z,8.44
2022-12-29T19:33:29.520Z,8.82
2022-12-29T19:36:01.785Z,9.04
2022-12-29T19:38:28.592Z,9.56
2022-12-29T19:40:55.020Z,9.64
2022-12-29T19:43:22.482Z,9.64
2022-12-29T19:45:48.846Z,9.69
2022-12-29T19:48:18.291Z,9.72
2022-12-29T19:50:45.468Z,9.64
2022-12-29T19:53:13.014Z,9.75
2022-12-29T19:55:46.789Z,9.86
2022-12-29T19:58:14.513Z,9.83
2022-12-29T20:00:42.599Z,9.69
2022-12-29T20:03:09.660Z,9.66
2022-12-29T20:05:36.883Z,9.63
2022-12-29T20:08:03.431Z,9.66
2022-12-29T20:10:29.885Z,9.63
2022-12-29T20:12:56.291Z,9.64
2022-12-29T20:15:22.694Z,9.64
2022-12-29T20:20:35.561Z,9.62
2022-12-29T20:23:02.021Z,9.63
2022-12-29T20:25:46.600Z,9.73
2022-12-29T20:28:14.796Z,9.68
2022-12-29T20:30:41.245Z,9.71
2022-12-29T20:33:08.572Z,9.86
2022-12-29T20:35:35.609Z,9.95
2022-12-29T20:38:01.987Z,9.91
2022-12-29T20:40:29.118Z,9.96
2022-12-29T20:42:55.677Z,9.90
2022-12-29T20:45:22.119Z,10.17
2022-12-29T20:47:48.739Z,10.24
2022-12-29T20:50:15.164Z,10.16
2022-12-29T20:52:41.726Z,10.06
2022-12-29T20:55:08.482Z,10.04
2022-12-29T20:57:57.235Z,10.02
2022-12-29T21:00:22.752Z,9.90
2022-12-29T21:02:49.729Z,9.84
2022-12-29T21:05:24.949Z,9.84
2022-12-29T21:07:53.338Z,9.80
2022-12-29T21:10:20.432Z,9.76
2022-12-29T21:12:47.628Z,9.75
2022-12-29T21:15:15.650Z,9.74
2022-12-29T21:17:43.672Z,9.70
2022-12-29T21:20:19.812Z,9.63
2022-12-29T21:22:47.581Z,9.36
2022-12-29T21:25:14.372Z,9.39
2022-12-29T21:27:46.867Z,9.32
2022-12-29T21:30:14.014Z,9.20
2022-12-29T21:32:41.353Z,9.03
2022-12-29T21:35:09.746Z,8.85
2022-12-29T21:37:36.900Z,8.69
2022-12-29T21:40:04.508Z,8.50
2022-12-29T21:42:30.928Z,8.44
2022-12-29T21:45:20.401Z,8.36
2022-12-29T21:48:05.868Z,8.17
2022-12-29T21:50:32.237Z,7.94
2022-12-29T21:52:58.674Z,7.88
2022-12-29T21:55:25.063Z,7.93
2022-12-29T21:58:10.203Z,7.71
2022-12-29T22:00:55.126Z,7.51
2022-12-29T22:03:40.118Z,7.43
2022-12-29T22:06:30.096Z,7.28
2022-12-29T22:09:14.907Z,7.14
2022-12-29T22:11:59.730Z,7.26
2022-12-29T22:14:26.101Z,7.20
2022-12-29T22:16:52.579Z,7.28
2022-12-29T22:19:19.004Z,7.48
2022-12-29T22:21:45.374Z,7.33
2022-12-29T22:24:11.787Z,7.11
2022-12-29T22:26:38.311Z,7.06
2022-12-29T22:29:04.978Z,6.94
2022-12-29T22:31:32.584Z,6.95
2022-12-29T22:34:01.807Z,7.09
2022-12-29T22:36:30.255Z,6.94
2022-12-29T22:38:57.091Z,6.93
2022-12-29T22:41:28.744Z,6.93
2022-12-29T22:43:55.104Z,6.94
2022-12-29T22:46:21.803Z,6.84
2022-12-29T22:48:48.200Z,6.74
2022-12-29T22:51:14.793Z,6.61
2022-12-29T22:53:41.343Z,6.42
2022-12-29T22:56:13.275Z,6.26
2022-12-29T22:58:41.157Z,6.19
2022-12-29T23:01:07.942Z,6.13
2022-12-29T23:03:34.999Z,6.10
2022-12-29T23:06:03.747Z,6.06
2022-12-29T23:08:36.446Z,5.90
2022-12-29T23:11:04.583Z,5.92
2022-12-29T23:13:31.079Z,5.87
2022-12-29T23:15:57.905Z,5.96
2022-12-29T23:18:24.355Z,5.77
2022-12-29T23:20:50.967Z,5.74
2022-12-29T23:23:43.251Z,5.72
2022-12-29T23:26:14.747Z,5.69
2022-12-29T23:28:42.501Z,5.70
2022-12-29T23:31:08.980Z,5.67
2022-12-29T23:33:35.436Z,5.83
2022-12-29T23:36:01.893Z,5.88
2022-12-29T23:38:28.281Z,5.69
2022-12-29T23:40:54.706Z,5.40
2022-12-29T23:43:21.176Z,5.49
2022-12-29T23:45:50.999Z,5.46
2022-12-29T23:48:18.163Z,5.54
2022-12-29T23:50:44.579Z,5.15
2022-12-29T23:53:11.551Z,5.08
2022-12-29T23:55:41.927Z,5.03
2022-12-29T23:58:08.495Z,5.12
